createdAt,value
2023-04-27T00:00:07.130Z,8.47
2023-04-27T00:02:34.253Z,6.07
2023-04-27T00:05:02.518Z,7.80
2023-04-27T00:07:29.696Z,11.77
2023-04-27T00:09:56.847Z,8.27
2023-04-27T00:12:24.172Z,8.33
2023-04-27T00:14:51.391Z,12.00
2023-04-27T00:17:18.543Z,10.43
2023-04-27T00:19:47.376Z,8.97
2023-04-27T00:22:14.441Z,8.63
2023-04-27T00:24:41.750Z,8.27
2023-04-27T00:27:08.814Z,10.13
2023-04-27T00:29:36.031Z,8.53
2023-04-27T00:32:03.164Z,11.37
2023-04-27T00:34:30.372Z,10.10
2023-04-27T00:36:58.198Z,15.87
2023-04-27T00:39:25.499Z,8.97
2023-04-27T00:41:52.563Z,10.53
2023-04-27T00:44:23.679Z,11.20
2023-04-27T00:46:51.407Z,11.23
2023-04-27T00:49:18.578Z,12.47
2023-04-27T00:51:45.707Z,10.67
2023-04-27T00:54:13.015Z,9.47
2023-04-27T00:56:40.097Z,11.67
2023-04-27T00:59:07.382Z,10.00
2023-04-27T01:01:34.791Z,7.70
2023-04-27T01:04:02.246Z,9.00
2023-04-27T01:06:29.754Z,8.77
2023-04-27T01:08:57.017Z,8.60
2023-04-27T01:11:24.362Z,7.50
2023-04-27T01:13:52.252Z,9.30
2023-04-27T01:16:19.353Z,12.17
2023-04-27T01:18:47.050Z,8.90
2023-04-27T01:21:14.203Z,12.10
2023-04-27T01:23:41.280Z,10.70
2023-04-27T01:26:08.352Z,8.53
2023-04-27T01:28:35.469Z,10.53
2023-04-27T01:31:02.526Z,8.00
2023-04-27T01:33:29.577Z,9.77
2023-04-27T01:35:56.613Z,12.10
2023-04-27T01:38:24.172Z,13.10
2023-04-27T01:40:51.202Z,13.03
2023-04-27T01:43:18.371Z,13.03
2023-04-27T01:45:45.540Z,8.33
2023-04-27T01:48:12.596Z,8.53
2023-04-27T01:50:39.667Z,9.17
2023-04-27T01:53:06.734Z,8.97
2023-04-27T01:55:33.782Z,11.90
2023-04-27T01:58:00.914Z,9.93
2023-04-27T02:00:27.987Z,9.20
2023-04-27T02:02:57.390Z,14.70
2023-04-27T02:05:24.871Z,9.50
2023-04-27T02:07:51.947Z,10.53
2023-04-27T02:10:19.231Z,11.57
2023-04-27T02:12:46.622Z,8.13
2023-04-27T02:15:13.664Z,10.70
2023-04-27T02:17:41.154Z,11.57
2023-04-27T02:20:08.968Z,11.83
2023-04-27T02:22:36.124Z,10.60
2023-04-27T02:25:03.592Z,7.53
2023-04-27T02:27:30.925Z,9.30
2023-04-27T02:29:58.738Z,9.97
2023-04-27T02:32:26.224Z,12.30
2023-04-27T02:34:53.356Z,9.83
2023-04-27T02:37:20.785Z,13.93
2023-04-27T02:39:48.013Z,10.50
2023-04-27T02:42:16.578Z,8.53
2023-04-27T02:44:43.904Z,14.67
2023-04-27T02:47:11.639Z,7.63
2023-04-27T02:49:38.828Z,15.47
2023-04-27T02:52:06.024Z,10.00
2023-04-27T02:54:33.177Z,11.47
2023-04-27T02:57:00.221Z,8.03
2023-04-27T02:59:27.331Z,13.57
2023-04-27T03:01:54.527Z,11.53
2023-04-27T03:04:21.755Z,8.83
2023-04-27T03:06:49.128Z,9.40
2023-04-27T03:09:16.611Z,9.40
2023-04-27T03:11:43.847Z,10.67
2023-04-27T03:14:12.589Z,9.00
2023-04-27T03:16:40.242Z,10.97
2023-04-27T03:19:07.508Z,9.27
2023-04-27T03:21:34.615Z,9.47
2023-04-27T03:24:01.722Z,8.60
2023-04-27T03:26:28.832Z,12.50
2023-04-27T03:28:55.865Z,15.47
2023-04-27T03:31:23.304Z,9.97
2023-04-27T03:33:50.608Z,10.00
2023-04-27T03:36:17.673Z,11.77
2023-04-27T03:38:44.752Z,12.43
2023-04-27T03:41:11.871Z,11.17
2023-04-27T03:43:39.105Z,11.47
2023-04-27T03:46:06.620Z,12.33
2023-04-27T03:48:33.742Z,9.80
2023-04-27T03:51:02.035Z,23.50
2023-04-27T03:53:29.108Z,12.20
2023-04-27T03:55:56.431Z,13.40
2023-04-27T03:58:23.467Z,13.83
2023-04-27T04:00:50.597Z,9.83
2023-04-27T04:03:17.890Z,9.27
2023-04-27T04:05:47.023Z,11.07
2023-04-27T04:08:17.591Z,10.40
2023-04-27T04:10:44.713Z,12.00
2023-04-27T04:13:11.767Z,9.07
2023-04-27T04:15:38.867Z,12.67
2023-04-27T04:18:05.968Z,10.93
2023-04-27T04:20:35.365Z,12.70
2023-04-27T04:23:02.651Z,8.07
2023-04-27T04:25:29.748Z,11.83
2023-04-27T04:27:56.792Z,7.83
2023-04-27T04:30:23.968Z,11.97
2023-04-27T04:32:51.749Z,12.67
2023-04-27T04:35:19.731Z,8.53
2023-04-27T04:37:47.177Z,10.27
2023-04-27T04:40:14.363Z,15.67
2023-04-27T04:42:41.414Z,10.60
2023-04-27T04:45:08.792Z,9.60
2023-04-27T04:47:36.636Z,13.20
2023-04-27T04:50:04.133Z,12.63
2023-04-27T04:52:31.355Z,9.83
2023-04-27T04:54:58.770Z,18.77
2023-04-27T04:57:25.992Z,14.37
2023-04-27T04:59:53.035Z,13.17
2023-04-27T05:02:20.218Z,13.40
2023-04-27T05:04:47.515Z,13.63
2023-04-27T05:07:15.529Z,16.50
2023-04-27T05:09:43.694Z,13.33
2023-04-27T05:12:10.915Z,13.73
2023-04-27T05:14:38.298Z,14.43
2023-04-27T05:17:05.498Z,12.07
2023-04-27T05:19:32.657Z,12.93
2023-04-27T05:21:59.761Z,11.50
2023-04-27T05:24:27.291Z,13.27
2023-04-27T05:26:54.981Z,12.77
2023-04-27T05:29:22.901Z,12.00
2023-04-27T05:31:50.116Z,10.03
2023-04-27T05:36:53.077Z,16.00
2023-04-27T05:39:20.122Z,11.33
2023-04-27T05:41:47.176Z,13.73
2023-04-27T05:44:14.366Z,9.07
2023-04-27T05:46:41.588Z,14.37
2023-04-27T05:49:08.648Z,13.53
2023-04-27T05:51:35.905Z,14.40
2023-04-27T05:54:03.261Z,12.33
2023-04-27T05:56:30.419Z,11.17
2023-04-27T05:58:57.498Z,11.37
2023-04-27T06:01:24.652Z,12.53
2023-04-27T06:03:52.046Z,15.00
2023-04-27T06:06:19.189Z,8.97
2023-04-27T06:08:46.227Z,9.37
2023-04-27T06:11:26.513Z,10.80
2023-04-27T06:13:53.702Z,9.70
2023-04-27T06:16:36.594Z,7.73
2023-04-27T06:19:03.954Z,7.50
2023-04-27T06:21:33.676Z,7.20
2023-04-27T06:24:01.224Z,5.17
2023-04-27T06:26:39.553Z,5.63
2023-04-27T06:29:07.911Z,7.07
2023-04-27T06:31:35.261Z,5.00
2023-04-27T06:34:02.407Z,4.70
2023-04-27T06:36:29.496Z,7.77
2023-04-27T06:38:56.622Z,9.70
2023-04-27T06:41:23.785Z,7.77
2023-04-27T06:43:51.120Z,5.23
2023-04-27T06:46:18.318Z,5.87
2023-04-27T06:48:45.544Z,7.00
2023-04-27T06:51:12.978Z,6.47
2023-04-27T06:53:40.408Z,4.80
2023-04-27T06:56:07.697Z,8.37
2023-04-27T06:58:34.784Z,3.83
2023-04-27T07:01:02.587Z,6.87
2023-04-27T07:03:29.932Z,3.07
2023-04-27T07:05:59.019Z,5.43
2023-04-27T07:08:26.088Z,3.27
2023-04-27T07:10:53.450Z,4.47
2023-04-27T07:13:20.552Z,4.47
2023-04-27T07:15:47.676Z,5.60
2023-04-27T07:18:14.776Z,7.37
2023-04-27T07:20:42.285Z,6.30
2023-04-27T07:23:09.297Z,6.13
2023-04-27T07:25:36.471Z,5.80
2023-04-27T07:28:04.241Z,7.57
2023-04-27T07:30:31.298Z,6.17
2023-04-27T07:32:58.642Z,5.50
2023-04-27T07:35:25.871Z,7.07
2023-04-27T07:37:52.905Z,4.17
2023-04-27T07:40:20.049Z,7.33
2023-04-27T07:42:47.415Z,5.77
2023-04-27T07:45:15.403Z,3.87
2023-04-27T07:47:43.892Z,3.90
2023-04-27T07:50:12.697Z,6.77
2023-04-27T07:52:39.862Z,6.37
2023-04-27T07:55:07.214Z,3.20
2023-04-27T07:57:34.284Z,3.80
2023-04-27T08:00:02.129Z,4.23
2023-04-27T08:02:34.691Z,5.50
2023-04-27T08:05:03.150Z,7.00
2023-04-27T08:07:32.024Z,5.33
2023-04-27T08:09:59.399Z,3.97
2023-04-27T08:12:26.438Z,5.53
2023-04-27T08:14:53.513Z,4.80
2023-04-27T08:17:21.947Z,3.13
2023-04-27T08:19:49.021Z,5.20
2023-04-27T08:22:16.520Z,5.00
2023-04-27T08:24:43.581Z,4.60
2023-04-27T08:27:10.886Z,4.83
2023-04-27T08:29:37.953Z,5.33
2023-04-27T08:32:05.784Z,6.33
2023-04-27T08:34:32.825Z,6.07
2023-04-27T08:37:00.527Z,5.07
2023-04-27T08:39:27.966Z,4.47
2023-04-27T08:41:55.110Z,3.17
2023-04-27T08:44:22.321Z,5.53
2023-04-27T08:46:51.062Z,3.83
2023-04-27T08:49:18.560Z,7.17
2023-04-27T08:51:45.941Z,4.00
2023-04-27T08:54:13.027Z,4.63
2023-04-27T08:56:40.086Z,4.97
2023-04-27T08:59:14.603Z,5.33
2023-04-27T09:01:49.347Z,3.70
2023-04-27T09:04:17.791Z,5.90
2023-04-27T09:06:45.143Z,2.57
2023-04-27T09:09:22.275Z,8.10
2023-04-27T09:11:49.889Z,4.47
2023-04-27T09:14:18.342Z,4.63
2023-04-27T09:16:45.634Z,5.70
2023-04-27T09:19:13.205Z,3.63
2023-04-27T09:21:40.612Z,3.37
2023-04-27T09:24:12.710Z,6.10
2023-04-27T09:26:41.687Z,3.20
2023-04-27T09:29:09.078Z,8.27
2023-04-27T09:31:36.551Z,5.40
2023-04-27T09:34:04.324Z,4.60
2023-04-27T09:36:32.595Z,4.30
2023-04-27T09:39:04.360Z,5.07
2023-04-27T09:41:32.598Z,4.13
2023-04-27T09:43:59.807Z,3.50
2023-04-27T09:46:27.296Z,5.23
2023-04-27T09:48:55.081Z,3.30
2023-04-27T09:51:22.143Z,3.57
2023-04-27T09:53:52.255Z,4.87
2023-04-27T09:56:28.192Z,3.87
2023-04-27T09:59:14.339Z,6.30
2023-04-27T10:01:48.655Z,6.97
2023-04-27T10:04:19.566Z,7.13
2023-04-27T10:07:03.097Z,7.53
2023-04-27T10:09:36.508Z,3.87
2023-04-27T10:12:18.732Z,3.60
2023-04-27T10:14:50.947Z,3.10
2023-04-27T10:17:18.286Z,6.87
2023-04-27T10:19:58.825Z,3.57
2023-04-27T10:22:38.295Z,5.30
2023-04-27T10:25:13.685Z,4.90
2023-04-27T10:27:41.183Z,5.00
2023-04-27T10:30:12.322Z,3.37
2023-04-27T10:32:39.479Z,5.17
2023-04-27T10:35:08.070Z,3.07
2023-04-27T10:37:42.522Z,5.60
2023-04-27T10:40:14.485Z,5.23
2023-04-27T10:42:42.201Z,4.60
2023-04-27T10:45:09.647Z,3.37
2023-04-27T10:47:38.220Z,5.43
2023-04-27T10:50:06.601Z,4.03
2023-04-27T10:52:33.847Z,5.20
2023-04-27T10:55:16.904Z,5.67
2023-04-27T10:57:50.971Z,7.87
2023-04-27T11:00:25.360Z,3.70
2023-04-27T11:02:53.930Z,3.80
2023-04-27T11:05:22.440Z,3.43
2023-04-27T11:07:50.115Z,4.77
2023-04-27T11:10:20.756Z,5.63
2023-04-27T11:12:47.856Z,8.27
2023-04-27T11:15:14.933Z,13.77
2023-04-27T11:17:42.230Z,6.43
2023-04-27T11:20:10.342Z,4.13
2023-04-27T11:22:46.806Z,9.10
2023-04-27T11:25:13.937Z,5.80
2023-04-27T11:27:42.032Z,2.93
2023-04-27T11:30:20.090Z,4.50
2023-04-27T11:32:47.724Z,6.40
2023-04-27T11:35:15.013Z,4.03
2023-04-27T11:37:43.239Z,4.03
2023-04-27T11:40:11.219Z,3.13
2023-04-27T11:42:38.334Z,3.67
2023-04-27T11:45:06.569Z,4.90
2023-04-27T11:47:35.530Z,4.40
2023-04-27T11:50:04.902Z,6.00
2023-04-27T11:52:36.574Z,4.13
2023-04-27T11:55:04.146Z,3.27
2023-04-27T11:57:32.660Z,4.70
2023-04-27T12:00:01.429Z,4.37
2023-04-27T12:02:29.677Z,5.13
2023-04-27T12:04:57.099Z,4.27
2023-04-27T12:07:24.303Z,3.43
2023-04-27T12:09:51.524Z,4.53
2023-04-27T12:12:19.182Z,4.90
2023-04-27T12:14:46.376Z,6.83
2023-04-27T12:17:13.655Z,3.50
2023-04-27T12:19:40.897Z,5.00
2023-04-27T12:22:08.427Z,6.57
2023-04-27T12:24:36.079Z,6.13
2023-04-27T12:27:03.762Z,4.90
2023-04-27T12:29:34.372Z,3.57
2023-04-27T12:32:01.624Z,4.40
2023-04-27T12:34:28.768Z,4.30
2023-04-27T12:36:56.236Z,4.67
2023-04-27T12:39:27.208Z,5.47
2023-04-27T12:41:54.813Z,5.73
2023-04-27T12:44:22.659Z,4.63
2023-04-27T12:46:50.565Z,3.03
2023-04-27T12:49:18.166Z,4.07
2023-04-27T12:51:47.816Z,6.17
2023-04-27T12:54:15.181Z,6.23
2023-04-27T12:56:42.545Z,8.23
2023-04-27T12:59:09.792Z,5.73
2023-04-27T13:01:37.228Z,4.47
2023-04-27T13:04:05.936Z,5.93
2023-04-27T13:06:33.368Z,3.30
2023-04-27T13:09:00.726Z,3.90
2023-04-27T13:11:27.955Z,4.13
2023-04-27T13:13:55.174Z,5.43
2023-04-27T13:16:25.053Z,4.47
2023-04-27T13:18:53.311Z,3.70
2023-04-27T13:21:20.750Z,4.80
2023-04-27T13:23:48.316Z,5.37
2023-04-27T13:26:15.911Z,5.13
2023-04-27T13:28:43.245Z,5.63
2023-04-27T13:31:10.821Z,4.80
2023-04-27T13:33:42.848Z,8.70
2023-04-27T13:36:10.741Z,5.60
2023-04-27T13:38:37.872Z,7.13
2023-04-27T13:41:05.392Z,4.13
2023-04-27T13:43:32.703Z,5.30
2023-04-27T13:46:01.597Z,7.03
2023-04-27T13:48:29.092Z,7.63
2023-04-27T13:50:56.334Z,5.87
2023-04-27T13:53:26.865Z,8.37
2023-04-27T13:55:57.021Z,6.00
2023-04-27T13:58:26.117Z,5.03
2023-04-27T14:00:54.082Z,5.20
2023-04-27T14:03:21.661Z,4.77
2023-04-27T14:05:50.912Z,5.60
2023-04-27T14:08:18.229Z,5.77
2023-04-27T14:10:45.953Z,4.07
2023-04-27T14:13:13.423Z,4.17
2023-04-27T14:15:40.987Z,6.43
2023-04-27T14:18:09.086Z,6.33
2023-04-27T14:20:36.540Z,4.47
2023-04-27T14:23:04.061Z,4.43
2023-04-27T14:25:34.122Z,5.17
2023-04-27T14:28:02.052Z,6.13
2023-04-27T14:30:29.254Z,7.53
2023-04-27T14:32:56.341Z,4.83
2023-04-27T14:35:23.818Z,6.90
2023-04-27T14:37:51.619Z,4.50
2023-04-27T14:40:18.891Z,3.60
2023-04-27T14:42:46.993Z,5.93
2023-04-27T14:45:16.102Z,4.30
2023-04-27T14:47:43.278Z,4.43
2023-04-27T14:50:11.561Z,6.77
2023-04-27T14:52:38.756Z,5.67
2023-04-27T14:55:06.491Z,4.10
2023-04-27T14:57:33.732Z,4.13
2023-04-27T15:00:01.073Z,5.33
2023-04-27T15:02:28.207Z,5.10
2023-04-27T15:04:55.606Z,4.47
2023-04-27T15:07:22.926Z,8.30
2023-04-27T15:09:51.330Z,5.23
2023-04-27T15:12:18.492Z,6.07
2023-04-27T15:14:45.646Z,3.80
2023-04-27T15:17:14.141Z,4.13
2023-04-27T15:19:41.327Z,5.10
2023-04-27T15:22:09.621Z,6.20
2023-04-27T15:24:36.861Z,6.83
2023-04-27T15:27:03.971Z,5.63
2023-04-27T15:29:31.140Z,6.40
2023-04-27T15:31:58.269Z,4.07
2023-04-27T15:34:25.455Z,6.03
2023-04-27T15:36:52.866Z,5.07
2023-04-27T15:39:19.961Z,7.03
2023-04-27T15:41:47.485Z,5.40
2023-04-27T15:44:14.727Z,6.50
2023-04-27T15:46:41.857Z,4.97
2023-04-27T15:49:09.024Z,4.57
2023-04-27T15:51:36.172Z,8.27
2023-04-27T15:54:03.336Z,6.00
2023-04-27T15:56:30.930Z,4.83
2023-04-27T15:58:58.338Z,5.37
2023-04-27T16:01:26.032Z,5.63
2023-04-27T16:03:53.370Z,6.23
2023-04-27T16:06:20.481Z,6.33
2023-04-27T16:08:47.609Z,4.63
2023-04-27T16:11:14.962Z,5.23
2023-04-27T16:13:42.333Z,5.03
2023-04-27T16:16:09.514Z,7.33
2023-04-27T16:18:38.589Z,4.60
2023-04-27T16:21:06.132Z,8.10
2023-04-27T16:23:33.259Z,14.27
2023-04-27T16:26:00.413Z,6.20
2023-04-27T16:28:27.581Z,5.03
2023-04-27T16:30:54.629Z,4.03
2023-04-27T16:33:21.934Z,5.43
2023-04-27T16:35:49.370Z,4.10
2023-04-27T16:38:16.597Z,4.60
2023-04-27T16:40:43.756Z,3.90
2023-04-27T16:43:11.208Z,5.80
2023-04-27T16:45:38.694Z,4.23
2023-04-27T16:48:06.264Z,4.00
2023-04-27T16:50:33.486Z,5.07
2023-04-27T16:53:06.944Z,4.97
2023-04-27T16:55:34.424Z,4.37
2023-04-27T16:58:01.614Z,4.10
2023-04-27T17:00:29.246Z,5.57
2023-04-27T17:02:56.682Z,5.13
2023-04-27T17:05:23.868Z,4.53
2023-04-27T17:07:51.305Z,6.03
2023-04-27T17:10:18.711Z,5.63
2023-04-27T17:12:45.781Z,3.90
2023-04-27T17:15:12.981Z,6.50
2023-04-27T17:17:40.148Z,8.60
2023-04-27T17:20:09.252Z,4.93
2023-04-27T17:22:36.461Z,4.30
2023-04-27T17:25:04.138Z,7.60
2023-04-27T17:27:31.304Z,6.03
2023-04-27T17:29:58.417Z,8.87
2023-04-27T17:32:26.092Z,4.93
2023-04-27T17:34:53.404Z,6.97
2023-04-27T17:37:20.637Z,5.87
2023-04-27T17:39:47.820Z,4.33
2023-04-27T17:42:15.010Z,6.60
2023-04-27T17:44:42.361Z,7.50
2023-04-27T17:47:10.342Z,6.27
2023-04-27T17:49:37.402Z,5.60
2023-04-27T17:52:04.728Z,8.50
2023-04-27T17:54:32.012Z,6.30
2023-04-27T17:56:59.171Z,4.17
2023-04-27T17:59:26.244Z,8.80
2023-04-27T18:01:55.424Z,6.20
2023-04-27T18:04:22.875Z,5.23
2023-04-27T18:06:50.383Z,7.00
2023-04-27T18:09:17.545Z,6.03
2023-04-27T18:11:44.618Z,5.03
2023-04-27T18:14:11.928Z,5.83
2023-04-27T18:16:39.124Z,5.40
2023-04-27T18:19:06.343Z,5.57
2023-04-27T18:21:33.524Z,5.77
2023-04-27T18:24:00.730Z,6.77
2023-04-27T18:26:27.868Z,9.13
2023-04-27T18:28:54.975Z,10.83
2023-04-27T18:31:24.169Z,6.83
2023-04-27T18:33:51.298Z,6.40
2023-04-27T18:36:19.670Z,6.27
2023-04-27T18:38:48.199Z,7.40
2023-04-27T18:41:15.708Z,6.03
2023-04-27T18:43:42.844Z,5.90
2023-04-27T18:46:09.963Z,5.80
2023-04-27T18:48:37.571Z,6.70
2023-04-27T18:51:04.678Z,6.43
2023-04-27T18:53:31.728Z,4.60
2023-04-27T18:55:58.815Z,5.20
2023-04-27T18:58:25.911Z,6.73
2023-04-27T19:00:53.322Z,8.80
2023-04-27T19:03:20.706Z,6.23
2023-04-27T19:05:47.995Z,6.20
2023-04-27T19:08:15.138Z,5.90
2023-04-27T19:10:42.662Z,7.27
2023-04-27T19:13:09.958Z,6.23
2023-04-27T19:15:37.118Z,4.77
2023-04-27T19:18:10.525Z,7.33
2023-04-27T19:20:44.886Z,5.50
2023-04-27T19:23:15.322Z,7.97
2023-04-27T19:25:42.521Z,8.23
2023-04-27T19:28:10.282Z,5.83
2023-04-27T19:30:37.894Z,9.30
2023-04-27T19:33:05.123Z,8.63
2023-04-27T19:35:32.276Z,10.27
2023-04-27T19:38:02.396Z,7.17
2023-04-27T19:40:29.629Z,9.23
2023-04-27T19:42:56.718Z,7.37
2023-04-27T19:45:23.959Z,10.80
2023-04-27T19:47:51.195Z,7.27
2023-04-27T19:50:18.451Z,9.57
2023-04-27T19:52:45.875Z,7.70
2023-04-27T19:55:14.186Z,7.97
2023-04-27T19:57:41.900Z,6.50
2023-04-27T20:00:10.195Z,9.07
2023-04-27T20:02:37.925Z,5.70
2023-04-27T20:05:08.586Z,6.83
2023-04-27T20:07:37.481Z,12.13
2023-04-27T20:10:05.548Z,6.43
2023-04-27T20:12:51.440Z,8.40
2023-04-27T20:15:20.278Z,8.73
2023-04-27T20:17:47.839Z,5.30
2023-04-27T20:20:15.399Z,5.23
2023-04-27T20:22:42.790Z,8.03
2023-04-27T20:25:10.596Z,7.70
2023-04-27T20:27:37.685Z,10.20
2023-04-27T20:30:05.071Z,6.93
2023-04-27T20:32:32.307Z,7.90
2023-04-27T20:35:01.407Z,8.60
2023-04-27T20:37:29.253Z,7.13
2023-04-27T20:39:56.391Z,14.30
2023-04-27T20:42:24.491Z,12.27
2023-04-27T20:44:54.781Z,14.97
2023-04-27T20:47:22.429Z,9.57
2023-04-27T20:49:49.628Z,6.10
2023-04-27T20:52:16.950Z,8.23
2023-04-27T20:54:44.188Z,8.07
2023-04-27T20:57:14.022Z,5.60
2023-04-27T20:59:41.602Z,6.83
2023-04-27T21:02:08.800Z,9.63
2023-04-27T21:04:36.197Z,5.00
2023-04-27T21:07:03.513Z,7.77
2023-04-27T21:09:31.341Z,6.33
2023-04-27T21:11:58.724Z,7.47
2023-04-27T21:14:26.656Z,7.13
2023-04-27T21:16:56.508Z,9.37
2023-04-27T21:19:23.770Z,7.13
2023-04-27T21:21:50.972Z,5.10
2023-04-27T21:24:19.261Z,7.17
2023-04-27T21:26:46.619Z,6.63
2023-04-27T21:29:13.736Z,4.73
2023-04-27T21:31:40.893Z,6.00
2023-04-27T21:34:08.153Z,5.73
2023-04-27T21:36:35.466Z,5.60
2023-04-27T21:39:02.652Z,6.03
2023-04-27T21:41:29.869Z,4.47
2023-04-27T21:43:57.079Z,4.20
2023-04-27T21:46:24.402Z,5.07
2023-04-27T21:48:51.726Z,6.63
2023-04-27T21:51:18.865Z,3.33
2023-04-27T21:53:46.230Z,5.33
2023-04-27T21:56:13.869Z,4.67
2023-04-27T21:58:41.101Z,4.67
2023-04-27T22:01:08.267Z,4.53
2023-04-27T22:04:13.183Z,4.27
2023-04-27T22:06:40.791Z,4.23
2023-04-27T22:09:08.278Z,5.27
2023-04-27T22:11:35.531Z,4.53
2023-04-27T22:14:02.838Z,5.77
2023-04-27T22:16:30.345Z,6.30
2023-04-27T22:18:57.937Z,5.90
2023-04-27T22:21:25.259Z,6.53
2023-04-27T22:23:52.373Z,5.10
2023-04-27T22:26:19.397Z,4.47
2023-04-27T22:28:47.303Z,4.93
2023-04-27T22:31:14.598Z,5.57
2023-04-27T22:36:24.256Z,5.33
2023-04-27T22:38:51.867Z,5.40
2023-04-27T22:41:19.206Z,4.13
2023-04-27T22:43:46.308Z,4.50
2023-04-27T22:46:13.485Z,9.37
2023-04-27T22:48:40.923Z,6.73
2023-04-27T22:51:08.685Z,4.77
2023-04-27T22:53:36.087Z,6.27
2023-04-27T22:56:03.131Z,4.87
2023-04-27T22:58:30.581Z,5.37
2023-04-27T23:00:57.767Z,9.57
2023-04-27T23:03:25.047Z,5.63
2023-04-27T23:05:53.596Z,5.03
2023-04-27T23:11:15.815Z,7.87
2023-04-27T23:13:42.953Z,8.67
2023-04-27T23:16:10.221Z,8.23
2023-04-27T23:18:37.506Z,8.20
2023-04-27T23:21:04.720Z,7.80
2023-04-27T23:23:31.841Z,7.97
2023-04-27T23:25:58.881Z,6.63
2023-04-27T23:28:25.915Z,5.80
2023-04-27T23:30:55.796Z,5.97
2023-04-27T23:33:22.883Z,7.67
2023-04-27T23:35:50.014Z,3.83
2023-04-27T23:38:17.194Z,7.70
2023-04-27T23:40:44.251Z,5.60
2023-04-27T23:43:11.962Z,3.93
2023-04-27T23:45:39.036Z,4.60
2023-04-27T23:48:06.463Z,4.40
2023-04-27T23:53:09.508Z,4.63
2023-04-27T23:55:36.886Z,4.50
2023-04-27T23:58:04.119Z,4.77
